Seattle, Washington
Traffic Map
Current Weather Conditions
Seattle, Washington
Overcast Light Rain
Overcast
13°
Feels Like: 13°
Wind Chill: 13° Ceiling: 6000
Heat Index: 13° Visibility: 9mi
Dew Point: Wind: 0mph
Humidity: 74% Direction: ° ()
Pressure: 30.1in Gusts: 0mph
Raw Report DataKBFI 112253Z 00000KT 9SM -RA OVC060 13/08 A3010 RMK AO2 RAB2154 SLP194 P0001 T01280083
Traffic Incident Summary
Active as of:
Severity:
Category:
InformationThere was an issue retrieving the traffic information for this location. Please try a different location or try again shortly.
Advertisements
Track Severe Weather on mobile